createdAt,value
2022-10-17T00:01:21.625Z,101522.31
2022-10-17T00:03:47.779Z,101531.19
2022-10-17T00:06:15.057Z,101535.28
2022-10-17T00:08:42.497Z,101539.25
2022-10-17T00:11:14.169Z,101534.50
2022-10-17T00:13:41.971Z,101531.56
2022-10-17T00:16:08.815Z,101538.34
2022-10-17T00:18:34.902Z,101537.09
2022-10-17T00:21:00.987Z,101526.78
2022-10-17T00:23:30.572Z,101527.53
2022-10-17T00:26:01.039Z,101523.59
2022-10-17T00:28:27.200Z,101527.56
2022-10-17T00:30:56.872Z,101521.06
2022-10-17T00:33:22.973Z,101524.16
2022-10-17T00:35:49.060Z,101528.13
2022-10-17T00:38:15.156Z,101519.81
2022-10-17T00:40:41.248Z,101518.56
2022-10-17T00:43:16.810Z,101506.69
2022-10-17T00:45:42.882Z,101494.16
2022-10-17T00:48:12.459Z,101494.53
2022-10-17T00:50:42.002Z,101500.91
2022-10-17T00:53:09.466Z,101510.22
2022-10-17T00:55:42.364Z,101519.25
2022-10-17T00:58:08.630Z,101521.09
2022-10-17T01:00:34.728Z,101520.78
2022-10-17T01:03:00.837Z,101516.13
2022-10-17T01:05:26.996Z,101515.00
2022-10-17T01:07:55.016Z,101515.25
2022-10-17T01:13:11.632Z,101524.13
2022-10-17T01:15:44.306Z,101533.03
2022-10-17T01:18:22.645Z,101533.88
2022-10-17T01:21:13.144Z,101536.16
2022-10-17T01:23:58.372Z,101530.66
2022-10-17T01:26:51.939Z,101528.81
2022-10-17T01:29:33.027Z,101522.59
2022-10-17T01:32:03.814Z,101514.16
2022-10-17T01:34:47.152Z,101499.00
2022-10-17T01:37:21.475Z,101485.44
2022-10-17T01:40:03.139Z,101488.69
2022-10-17T01:42:48.633Z,101490.47
2022-10-17T01:45:31.956Z,101501.19
2022-10-17T01:48:05.862Z,101507.44
2022-10-17T01:50:37.936Z,101499.69
2022-10-17T01:53:14.691Z,101495.72
2022-10-17T01:55:44.293Z,101489.19
2022-10-17T01:58:15.063Z,101492.41
2022-10-17T02:00:45.319Z,101487.00
2022-10-17T02:03:18.222Z,101488.56
2022-10-17T02:05:45.721Z,101481.16
2022-10-17T02:08:12.420Z,101490.28
2022-10-17T02:10:53.742Z,101481.94
2022-10-17T02:13:35.102Z,101485.88
2022-10-17T02:16:16.159Z,101482.72
2022-10-17T02:19:08.816Z,101491.03
2022-10-17T02:21:46.527Z,101484.22
2022-10-17T02:24:37.478Z,101483.69
2022-10-17T02:27:17.182Z,101484.75
2022-10-17T02:29:57.326Z,101478.69
2022-10-17T02:32:46.656Z,101493.91
2022-10-17T02:35:16.023Z,101498.44
2022-10-17T02:37:45.432Z,101498.44
2022-10-17T02:40:14.525Z,101498.56
2022-10-17T02:42:43.871Z,101489.81
2022-10-17T02:45:10.724Z,101495.28
2022-10-17T02:47:49.562Z,101495.16
2022-10-17T02:50:15.757Z,101489.81
2022-10-17T02:52:58.055Z,101496.00
2022-10-17T02:55:33.509Z,101492.47
2022-10-17T02:58:02.667Z,101487.13
2022-10-17T03:00:29.852Z,101493.31
2022-10-17T03:02:56.028Z,101487.84
2022-10-17T03:05:24.906Z,101487.31
2022-10-17T03:07:51.620Z,101492.00
2022-10-17T03:10:18.548Z,101488.81
2022-10-17T03:12:44.765Z,101483.06
2022-10-17T03:15:12.509Z,101482.41
2022-10-17T03:17:39.844Z,101488.47
2022-10-17T03:20:07.750Z,101490.16
2022-10-17T03:22:34.103Z,101491.38
2022-10-17T03:25:02.365Z,101482.53
2022-10-17T03:27:28.754Z,101493.53
2022-10-17T03:29:55.592Z,101488.91
2022-10-17T03:32:21.677Z,101485.97
2022-10-17T03:34:48.022Z,101480.44
2022-10-17T03:37:14.101Z,101480.44
2022-10-17T03:39:41.356Z,101485.66
2022-10-17T03:42:07.512Z,101478.47
2022-10-17T03:44:33.634Z,101478.47
2022-10-17T03:46:59.744Z,101479.22
2022-10-17T03:49:25.870Z,101484.72
2022-10-17T03:51:52.666Z,101483.88
2022-10-17T03:54:18.956Z,101476.03
2022-10-17T03:56:45.079Z,101474.47
2022-10-17T03:59:15.302Z,101477.34
2022-10-17T04:01:44.897Z,101473.66
2022-10-17T04:04:12.187Z,101471.97
2022-10-17T04:06:38.664Z,101471.28
2022-10-17T04:09:07.119Z,101467.13
2022-10-17T04:11:40.919Z,101475.34
2022-10-17T04:14:07.454Z,101473.78
2022-10-17T04:16:33.576Z,101473.06
2022-10-17T04:19:04.186Z,101475.47
2022-10-17T04:21:36.120Z,101466.84
2022-10-17T04:24:05.993Z,101466.25
2022-10-17T04:26:56.932Z,101463.72
2022-10-17T04:29:26.970Z,101462.03
2022-10-17T04:32:00.399Z,101459.75
2022-10-17T04:34:34.911Z,101455.50
2022-10-17T04:37:01.033Z,101448.59
2022-10-17T04:39:27.343Z,101449.44
2022-10-17T04:41:55.614Z,101454.22
2022-10-17T04:44:21.972Z,101452.41
2022-10-17T04:46:51.076Z,101441.13
2022-10-17T04:49:17.225Z,101443.63
2022-10-17T04:51:46.612Z,101447.06
2022-10-17T04:54:22.274Z,101441.69
2022-10-17T04:56:54.322Z,101439.97
2022-10-17T04:59:20.531Z,101439.28
2022-10-17T05:01:52.334Z,101443.94
2022-10-17T05:04:22.364Z,101445.06
2022-10-17T05:06:50.908Z,101446.16
2022-10-17T05:09:33.222Z,101449.13
2022-10-17T05:11:59.756Z,101454.31
2022-10-17T05:14:26.698Z,101452.63
2022-10-17T05:16:52.805Z,101451.09
2022-10-17T05:19:19.308Z,101446.69
2022-10-17T05:21:48.639Z,101446.81
2022-10-17T05:24:15.261Z,101451.34
2022-10-17T05:26:41.354Z,101451.59
2022-10-17T05:29:08.227Z,101450.63
2022-10-17T05:31:39.140Z,101453.31
2022-10-17T05:34:09.066Z,101446.97
2022-10-17T05:36:37.880Z,101437.25
2022-10-17T05:39:05.187Z,101456.84
2022-10-17T05:41:33.203Z,101453.19
2022-10-17T05:44:01.800Z,101458.41
2022-10-17T05:46:39.573Z,101465.59
2022-10-17T05:49:19.411Z,101464.03
2022-10-17T05:51:52.196Z,101470.34
2022-10-17T05:54:18.450Z,101469.25
2022-10-17T05:56:45.054Z,101475.59
2022-10-17T05:59:11.275Z,101479.09
2022-10-17T06:02:12.494Z,101481.97
2022-10-17T06:04:38.709Z,101468.16
2022-10-17T06:07:05.734Z,101471.00
2022-10-17T06:09:32.972Z,101469.38
2022-10-17T06:11:59.130Z,101474.03
2022-10-17T06:14:25.246Z,101470.66
2022-10-17T06:16:55.484Z,101485.06
2022-10-17T06:19:21.611Z,101477.88
2022-10-17T06:21:47.694Z,101485.81
2022-10-17T06:24:18.996Z,101490.34
2022-10-17T06:26:47.003Z,101491.06
2022-10-17T06:29:15.000Z,101488.50
2022-10-17T06:31:45.747Z,101501.94
2022-10-17T06:34:11.843Z,101501.94
2022-10-17T06:36:39.404Z,101500.25
2022-10-17T06:39:05.990Z,101506.72
2022-10-17T06:41:44.548Z,101510.44
2022-10-17T06:44:11.658Z,101518.59
2022-10-17T06:46:54.354Z,101520.72
2022-10-17T06:49:21.694Z,101522.28
2022-10-17T06:51:56.176Z,101524.25
2022-10-17T06:54:30.507Z,101526.22
2022-10-17T06:57:16.955Z,101521.22
2022-10-17T07:00:06.515Z,101527.59
2022-10-17T07:02:43.902Z,101515.94
2022-10-17T07:05:10.139Z,101516.75
2022-10-17T07:07:40.017Z,101522.47
2022-10-17T07:10:09.444Z,101535.88
2022-10-17T07:12:36.755Z,101531.00
2022-10-17T07:15:05.009Z,101530.34
2022-10-17T07:17:31.936Z,101530.69
2022-10-17T07:19:58.313Z,101531.19
2022-10-17T07:22:25.060Z,101524.72
2022-10-17T07:24:54.523Z,101524.34
2022-10-17T07:27:27.546Z,101518.03
2022-10-17T07:29:53.928Z,101521.19
2022-10-17T07:32:32.104Z,101523.47
2022-10-17T07:34:59.025Z,101521.34
2022-10-17T07:37:25.306Z,101517.72
2022-10-17T07:39:56.563Z,101525.69
2022-10-17T07:42:23.176Z,101524.59
2022-10-17T07:44:49.862Z,101524.94
2022-10-17T07:47:16.025Z,101531.56
2022-10-17T07:49:44.206Z,101534.09
2022-10-17T07:52:12.033Z,101530.91
2022-10-17T07:54:38.396Z,101535.69
2022-10-17T07:57:04.614Z,101530.81
2022-10-17T07:59:30.695Z,101544.00
2022-10-17T08:01:56.970Z,101536.28
2022-10-17T08:04:23.722Z,101531.06
2022-10-17T08:06:53.387Z,101528.75
2022-10-17T08:09:22.607Z,101530.09
2022-10-17T08:11:49.131Z,101524.53
2022-10-17T08:14:16.832Z,101529.97
2022-10-17T08:16:43.626Z,101537.25
2022-10-17T08:19:11.517Z,101531.03
2022-10-17T08:21:38.738Z,101536.44
2022-10-17T08:24:05.156Z,101532.38
2022-10-17T08:26:31.249Z,101539.81
2022-10-17T08:28:57.690Z,101539.16
2022-10-17T08:31:23.831Z,101535.31
2022-10-17T08:33:50.430Z,101543.91
2022-10-17T08:36:19.157Z,101536.00
2022-10-17T08:38:47.980Z,101540.88
2022-10-17T08:42:08.834Z,101537.03
2022-10-17T08:44:48.166Z,101538.41
2022-10-17T08:47:21.058Z,101533.19
2022-10-17T08:49:54.024Z,101537.75
2022-10-17T08:52:41.618Z,101529.63
2022-10-17T08:57:48.460Z,101533.13
2022-10-17T09:00:21.307Z,101519.28
2022-10-17T09:03:09.831Z,101522.47
2022-10-17T09:05:49.366Z,101522.13
2022-10-17T09:08:53.055Z,101516.50
2022-10-17T09:11:53.283Z,101517.97
2022-10-17T09:14:41.143Z,101523.84
2022-10-17T09:17:21.551Z,101519.78
2022-10-17T09:20:03.264Z,101526.00
2022-10-17T09:22:37.647Z,101512.59
2022-10-17T09:25:10.813Z,101506.47
2022-10-17T09:27:42.864Z,101513.34
2022-10-17T09:30:44.158Z,101522.28
2022-10-17T09:33:34.765Z,101525.56
2022-10-17T09:36:13.193Z,101523.78
2022-10-17T09:38:43.082Z,101522.16
2022-10-17T09:41:42.987Z,101523.38
2022-10-17T09:44:22.889Z,101516.06
2022-10-17T13:59:22.870Z,101397.09
2022-10-17T14:01:49.983Z,101404.00
2022-10-17T14:04:20.112Z,101395.81
2022-10-17T14:06:51.108Z,101398.75
2022-10-17T14:09:28.546Z,101404.81
2022-10-17T14:12:02.373Z,101400.38
2022-10-17T14:14:32.175Z,101397.88
2022-10-17T14:17:13.555Z,101401.88
2022-10-17T14:19:39.842Z,101400.03
2022-10-17T14:22:36.275Z,101407.56
2022-10-17T14:25:03.934Z,101403.56
2022-10-17T14:27:36.651Z,101405.44
2022-10-17T14:33:22.008Z,101412.97
2022-10-17T14:35:56.365Z,101406.00
2022-10-17T14:38:23.481Z,101406.22
2022-10-17T14:41:08.729Z,101412.28
2022-10-17T14:43:42.703Z,101413.75
2022-10-17T14:46:15.819Z,101419.81
2022-10-17T14:48:42.362Z,101416.41
2022-10-17T14:51:17.375Z,101420.84
2022-10-17T14:53:44.930Z,101419.97
2022-10-17T14:56:25.853Z,101423.78
2022-10-17T14:58:52.249Z,101430.75
2022-10-17T15:01:19.063Z,101423.41
2022-10-17T15:03:45.523Z,101431.03
2022-10-17T15:06:20.587Z,101429.84
2022-10-17T15:08:46.727Z,101430.28
2022-10-17T15:11:12.844Z,101425.28
2022-10-17T15:13:42.260Z,101429.91
2022-10-17T15:16:34.970Z,101433.66
2022-10-17T15:19:01.174Z,101425.03
2022-10-17T15:21:39.298Z,101429.19
2022-10-17T15:24:06.854Z,101430.63
2022-10-17T15:26:34.300Z,101430.56
2022-10-17T15:29:00.846Z,101430.47
2022-10-17T15:31:29.258Z,101431.25
2022-10-17T15:33:55.356Z,101431.19
2022-10-17T15:36:28.963Z,101435.50
2022-10-17T15:39:00.703Z,101437.50
2022-10-17T15:41:29.026Z,101448.53
2022-10-17T15:43:55.271Z,101443.00
2022-10-17T15:46:25.273Z,101447.66
2022-10-17T15:48:51.752Z,101445.88
2022-10-17T15:51:18.400Z,101445.28
2022-10-17T15:53:44.611Z,101447.50
2022-10-17T15:56:22.954Z,101452.53
2022-10-17T15:58:49.474Z,101444.03
2022-10-17T16:01:24.402Z,101456.44
2022-10-17T16:03:50.910Z,101459.41
2022-10-17T16:06:21.126Z,101460.72
2022-10-17T16:08:48.352Z,101456.81
2022-10-17T16:11:26.412Z,101462.06
2022-10-17T16:13:55.066Z,101464.75
2022-10-17T16:16:22.548Z,101467.09
2022-10-17T16:18:49.177Z,101456.72
2022-10-17T16:21:16.765Z,101459.88
2022-10-17T16:23:43.753Z,101460.59
2022-10-17T16:26:10.057Z,101457.56
2022-10-17T16:28:36.338Z,101463.34
2022-10-17T16:31:02.585Z,101464.09
2022-10-17T16:33:28.676Z,101460.97
2022-10-17T16:35:54.787Z,101463.94
2022-10-17T16:38:20.879Z,101471.47
2022-10-17T16:40:46.968Z,101463.88
2022-10-17T16:43:13.303Z,101472.91
2022-10-17T16:45:40.012Z,101465.31
2022-10-17T16:48:06.472Z,101468.25
2022-10-17T16:50:35.619Z,101472.88
2022-10-17T16:53:03.961Z,101470.69
2022-10-17T16:55:30.052Z,101477.00
2022-10-17T16:57:56.149Z,101473.28
2022-10-17T17:00:22.320Z,101485.28
2022-10-17T17:02:48.753Z,101476.22
2022-10-17T17:05:15.576Z,101477.38
2022-10-17T17:07:41.688Z,101479.13
2022-10-17T17:10:08.176Z,101474.88
2022-10-17T17:12:35.394Z,101474.41
2022-10-17T17:15:02.033Z,101478.13
2022-10-17T17:17:44.526Z,101475.25
2022-10-17T17:20:14.350Z,101471.22
2022-10-17T17:22:40.448Z,101477.63
2022-10-17T17:25:06.775Z,101477.81
2022-10-17T17:27:33.316Z,101473.75
2022-10-17T17:29:59.543Z,101470.56
2022-10-17T17:32:25.637Z,101468.72
2022-10-17T17:34:51.745Z,101478.66
2022-10-17T17:37:18.005Z,101479.03
2022-10-17T17:39:44.314Z,101475.66
2022-10-17T17:42:10.406Z,101478.03
2022-10-17T17:44:36.513Z,101483.81
2022-10-17T17:47:02.661Z,101488.34
2022-10-17T17:49:28.761Z,101493.25
2022-10-17T17:51:54.897Z,101491.59
2022-10-17T17:54:21.005Z,101485.34
2022-10-17T17:56:47.195Z,101488.56
2022-10-17T17:59:13.688Z,101488.59
2022-10-17T18:01:40.518Z,101486.91
2022-10-17T18:04:08.935Z,101488.44
2022-10-17T18:06:36.102Z,101491.13
2022-10-17T18:09:02.284Z,101490.28
2022-10-17T18:11:28.718Z,101500.06
2022-10-17T18:13:59.855Z,101507.81
2022-10-17T18:16:27.865Z,101493.81
2022-10-17T18:18:54.124Z,101501.03
2022-10-17T18:21:20.492Z,101494.47
2022-10-17T18:23:48.068Z,101507.63
2022-10-17T18:26:14.714Z,101506.59
2022-10-17T18:31:36.196Z,101510.50
2022-10-17T18:34:03.787Z,101511.47
2022-10-17T18:36:31.231Z,101517.88
2022-10-17T18:38:58.859Z,101519.06
2022-10-17T18:41:26.797Z,101515.69
2022-10-17T18:43:54.778Z,101518.03
2022-10-17T18:46:25.919Z,101513.13
2022-10-17T18:48:52.764Z,101519.88
2022-10-17T18:51:21.440Z,101523.22
2022-10-17T18:53:51.540Z,101525.72
2022-10-17T18:56:19.028Z,101525.38
2022-10-17T18:58:45.955Z,101531.44
2022-10-17T19:01:15.621Z,101534.75
2022-10-17T19:03:43.170Z,101535.09
2022-10-17T19:06:11.325Z,101531.34
2022-10-17T19:08:38.652Z,101537.25
2022-10-17T19:11:10.651Z,101541.75
2022-10-17T19:13:37.510Z,101527.09
2022-10-17T19:16:08.680Z,101538.56
2022-10-17T19:18:35.971Z,101544.28
2022-10-17T19:21:08.054Z,101548.41
2022-10-17T19:23:37.540Z,101551.75
2022-10-17T19:26:05.687Z,101556.09
2022-10-17T19:28:32.832Z,101552.03
2022-10-17T19:30:59.020Z,101559.41
2022-10-17T19:33:25.290Z,101565.28
2022-10-17T19:35:56.319Z,101555.50
2022-10-17T19:38:22.406Z,101556.69
2022-10-17T19:40:48.599Z,101567.94
2022-10-17T19:43:14.709Z,101572.09
2022-10-17T19:45:40.814Z,101571.56
2022-10-17T19:48:06.899Z,101574.56
2022-10-17T19:50:34.148Z,101578.56
2022-10-17T19:53:02.082Z,101576.91
2022-10-17T19:55:28.285Z,101565.44
2022-10-17T19:58:02.043Z,101575.66
2022-10-17T20:00:28.423Z,101567.19
2022-10-17T20:02:54.946Z,101577.44
2022-10-17T20:05:23.703Z,101572.66
2022-10-17T20:07:52.128Z,101572.97
2022-10-17T20:10:19.003Z,101581.38
2022-10-17T20:12:45.093Z,101587.75
2022-10-17T20:15:11.229Z,101583.22
2022-10-17T20:17:37.326Z,101587.59
2022-10-17T20:20:08.579Z,101597.69
2022-10-17T20:22:35.051Z,101591.88
2022-10-17T20:25:01.146Z,101596.75
2022-10-17T20:27:28.232Z,101590.97
2022-10-17T20:29:54.341Z,101596.13
2022-10-17T20:32:20.432Z,101599.97
2022-10-17T20:34:46.529Z,101600.44
2022-10-17T20:37:12.639Z,101608.94
2022-10-17T20:39:39.104Z,101605.56
2022-10-17T20:42:05.196Z,101606.84
2022-10-17T20:44:31.306Z,101611.81
2022-10-17T20:47:02.180Z,101614.94
2022-10-17T20:49:30.870Z,101617.09
2022-10-17T20:51:57.114Z,101626.47
2022-10-17T20:54:23.371Z,101623.25
2022-10-17T20:56:49.940Z,101615.47
2022-10-17T20:59:17.311Z,101630.75
2022-10-17T21:01:45.177Z,101623.13
2022-10-17T21:04:40.502Z,101624.28
2022-10-17T21:06:57.873Z,101624.88
2022-10-17T21:09:24.258Z,101628.69
2022-10-17T21:11:54.293Z,101629.00
2022-10-17T21:14:21.164Z,101626.75
2022-10-17T21:16:47.950Z,101624.34
2022-10-17T21:19:15.020Z,101632.69
2022-10-17T21:21:43.509Z,101635.69
2022-10-17T21:24:14.600Z,101642.38
2022-10-17T21:26:42.536Z,101637.25
2022-10-17T21:29:09.846Z,101640.25
2022-10-17T21:31:37.866Z,101639.69
2022-10-17T21:34:09.186Z,101642.66
2022-10-17T21:36:35.563Z,101633.75
2022-10-17T21:39:01.930Z,101638.56
2022-10-17T21:41:29.511Z,101636.03
2022-10-17T21:43:59.488Z,101632.78
2022-10-17T21:46:26.267Z,101641.00
2022-10-17T21:48:52.897Z,101645.66
2022-10-17T21:51:21.892Z,101647.50
2022-10-17T21:53:48.346Z,101643.84
2022-10-17T21:56:17.449Z,101642.97
2022-10-17T21:58:44.116Z,101649.34
2022-10-17T22:01:13.436Z,101651.19
2022-10-17T22:03:45.694Z,101653.19
2022-10-17T22:09:01.903Z,101656.56
2022-10-17T22:11:30.563Z,101657.69
2022-10-17T22:14:02.126Z,101662.53
2022-10-17T22:16:28.779Z,101666.31
2022-10-17T22:19:00.515Z,101662.94
2022-10-17T22:21:29.418Z,101660.38
2022-10-17T22:24:01.973Z,101666.06
2022-10-17T22:26:29.472Z,101665.34
2022-10-17T22:28:56.326Z,101665.50
2022-10-17T22:31:22.743Z,101669.00
2022-10-17T22:33:49.222Z,101667.47
2022-10-17T22:36:15.337Z,101672.00
2022-10-17T22:38:41.526Z,101667.59
2022-10-17T22:41:08.760Z,101661.09
2022-10-17T22:43:35.111Z,101669.84
2022-10-17T22:46:03.700Z,101667.34
2022-10-17T22:48:30.218Z,101673.41
2022-10-17T22:50:57.967Z,101666.91
2022-10-17T22:53:26.250Z,101670.28
2022-10-17T22:56:09.705Z,101671.00
2022-10-17T22:58:36.344Z,101666.75
2022-10-17T23:01:03.363Z,101664.91
2022-10-17T23:03:30.597Z,101673.56
2022-10-17T23:05:56.895Z,101670.41
2022-10-17T23:08:23.931Z,101659.53
2022-10-17T23:10:50.112Z,101670.16
2022-10-17T23:13:16.739Z,101664.34
2022-10-17T23:15:43.434Z,101666.63
2022-10-17T23:18:10.099Z,101676.34
2022-10-17T23:20:37.216Z,101663.47
2022-10-17T23:23:03.590Z,101669.28
2022-10-17T23:25:29.688Z,101670.00
2022-10-17T23:27:55.789Z,101669.56
2022-10-17T23:30:22.017Z,101660.75
2022-10-17T23:32:48.107Z,101661.88
2022-10-17T23:35:14.338Z,101662.00
2022-10-17T23:37:40.436Z,101669.78
2022-10-17T23:40:07.782Z,101661.28
2022-10-17T23:42:33.866Z,101664.53
2022-10-17T23:45:00.063Z,101668.28
2022-10-17T23:47:26.243Z,101663.63
2022-10-17T23:49:52.347Z,101666.03
2022-10-17T23:52:18.483Z,101666.31
2022-10-17T23:54:44.671Z,101668.81
2022-10-17T23:57:10.829Z,101657.78
2022-10-17T23:59:36.996Z,101667.94
